createdAt,value
2022-12-20T00:02:02.540Z,100.00
2022-12-20T00:04:28.948Z,100.00
2022-12-20T00:06:55.414Z,100.00
2022-12-20T00:09:21.853Z,100.00
2022-12-20T00:11:48.413Z,100.00
2022-12-20T00:14:14.758Z,100.00
2022-12-20T00:16:41.097Z,100.00
2022-12-20T00:19:07.656Z,100.00
2022-12-20T00:21:34.940Z,100.00
2022-12-20T00:24:01.387Z,100.00
2022-12-20T00:26:29.424Z,100.00
2022-12-20T00:28:55.745Z,100.00
2022-12-20T00:31:22.885Z,100.00
2022-12-20T00:33:59.173Z,100.00
2022-12-20T00:36:27.258Z,100.00
2022-12-20T00:38:54.812Z,100.00
2022-12-20T00:41:22.566Z,100.00
2022-12-20T00:44:02.919Z,100.00
2022-12-20T00:46:29.694Z,100.00
2022-12-20T00:49:01.824Z,100.00
2022-12-20T00:51:29.135Z,100.00
2022-12-20T00:53:55.957Z,100.00
2022-12-20T00:56:33.199Z,100.00
2022-12-20T00:59:00.351Z,100.00
2022-12-20T01:01:30.799Z,100.00
2022-12-20T01:04:17.688Z,100.00
2022-12-20T01:06:44.027Z,100.00
2022-12-20T01:09:11.248Z,100.00
2022-12-20T01:11:38.424Z,100.00
2022-12-20T01:14:21.940Z,100.00
2022-12-20T01:16:48.474Z,100.00
2022-12-20T01:19:16.686Z,100.00
2022-12-20T01:21:56.364Z,100.00
2022-12-20T01:24:22.741Z,100.00
2022-12-20T01:26:49.335Z,100.00
2022-12-20T01:29:15.773Z,100.00
2022-12-20T01:31:42.463Z,100.00
2022-12-20T01:34:09.747Z,100.00
2022-12-20T01:36:38.067Z,100.00
2022-12-20T01:39:06.400Z,100.00
2022-12-20T01:41:33.317Z,100.00
2022-12-20T01:44:21.822Z,100.00
2022-12-20T01:46:49.308Z,100.00
2022-12-20T01:49:37.709Z,100.00
2022-12-20T01:52:09.388Z,100.00
2022-12-20T01:54:56.161Z,100.00
2022-12-20T01:57:29.198Z,100.00
2022-12-20T01:59:56.388Z,100.00
2022-12-20T02:02:30.589Z,100.00
2022-12-20T02:04:57.158Z,100.00
2022-12-20T02:07:34.269Z,100.00
2022-12-20T02:10:01.627Z,100.00
2022-12-20T02:12:35.320Z,100.00
2022-12-20T02:15:04.487Z,100.00
2022-12-20T02:17:40.110Z,100.00
2022-12-20T02:20:21.745Z,100.00
2022-12-20T02:23:06.805Z,100.00
2022-12-20T02:25:52.310Z,100.00
2022-12-20T02:28:53.871Z,100.00
2022-12-20T02:31:26.164Z,100.00
2022-12-20T02:33:55.261Z,100.00
2022-12-20T02:36:21.768Z,100.00
2022-12-20T02:38:51.214Z,100.00
2022-12-20T02:41:23.276Z,100.00
2022-12-20T02:44:13.600Z,100.00
2022-12-20T02:46:40.367Z,100.00
2022-12-20T02:49:12.151Z,100.00
2022-12-20T02:51:39.878Z,100.00
2022-12-20T02:54:06.296Z,100.00
2022-12-20T02:56:34.918Z,100.00
2022-12-20T02:59:01.247Z,100.00
2022-12-20T03:01:33.105Z,100.00
2022-12-20T03:04:03.821Z,100.00
2022-12-20T03:09:52.229Z,100.00
2022-12-20T03:12:18.572Z,100.00
2022-12-20T03:14:45.026Z,100.00
2022-12-20T03:17:11.533Z,100.00
2022-12-20T03:19:43.921Z,100.00
2022-12-20T03:22:10.273Z,100.00
2022-12-20T03:24:36.686Z,100.00
2022-12-20T03:27:04.208Z,100.00
2022-12-20T03:29:40.497Z,100.00
2022-12-20T03:32:06.966Z,100.00
2022-12-20T03:34:33.313Z,100.00
2022-12-20T03:36:59.719Z,100.00
2022-12-20T03:39:26.042Z,100.00
2022-12-20T03:41:52.371Z,100.00
2022-12-20T03:44:18.741Z,100.00
2022-12-20T03:46:46.302Z,100.00
2022-12-20T03:49:12.799Z,100.00
2022-12-20T03:51:39.165Z,100.00
2022-12-20T03:54:12.537Z,100.00
2022-12-20T03:56:38.877Z,100.00
2022-12-20T03:59:05.227Z,100.00
2022-12-20T04:01:57.802Z,100.00
2022-12-20T04:04:24.274Z,100.00
2022-12-20T04:06:50.604Z,100.00
2022-12-20T04:09:17.036Z,100.00
2022-12-20T04:11:43.411Z,100.00
2022-12-20T04:14:09.749Z,100.00
2022-12-20T04:16:47.367Z,100.00
2022-12-20T04:19:13.818Z,100.00
2022-12-20T04:21:51.319Z,100.00
2022-12-20T04:24:17.690Z,100.00
2022-12-20T04:26:44.078Z,100.00
2022-12-20T04:29:10.443Z,100.00
2022-12-20T04:31:37.909Z,100.00
2022-12-20T04:34:04.393Z,100.00
2022-12-20T04:36:32.757Z,100.00
2022-12-20T04:38:59.099Z,100.00
2022-12-20T04:41:27.037Z,100.00
2022-12-20T04:43:57.302Z,100.00
2022-12-20T04:46:25.077Z,100.00
2022-12-20T04:48:59.196Z,100.00
2022-12-20T04:51:26.573Z,100.00
2022-12-20T04:57:29.521Z,100.00
2022-12-20T05:00:04.232Z,100.00
2022-12-20T05:02:30.773Z,100.00
2022-12-20T05:04:57.404Z,100.00
2022-12-20T05:07:23.744Z,100.00
2022-12-20T05:09:50.103Z,100.00
2022-12-20T05:12:45.507Z,100.00
2022-12-20T05:15:12.491Z,100.00
2022-12-20T05:17:46.089Z,100.00
2022-12-20T05:20:12.712Z,100.00
2022-12-20T05:22:58.743Z,100.00
2022-12-20T05:25:43.568Z,100.00
2022-12-20T05:28:09.931Z,100.00
2022-12-20T05:30:36.324Z,100.00
2022-12-20T05:33:02.675Z,100.00
2022-12-20T05:35:29.092Z,100.00
2022-12-20T05:37:55.784Z,100.00
2022-12-20T05:40:23.351Z,100.00
2022-12-20T05:42:49.689Z,100.00
2022-12-20T05:45:38.725Z,100.00
2022-12-20T05:48:05.149Z,100.00
2022-12-20T05:50:33.538Z,100.00
2022-12-20T05:53:00.916Z,100.00
2022-12-20T05:55:30.730Z,100.00
2022-12-20T05:57:57.065Z,100.00
2022-12-20T06:00:23.496Z,100.00
2022-12-20T06:02:50.004Z,100.00
2022-12-20T06:05:16.936Z,100.00
2022-12-20T06:07:44.058Z,100.00
2022-12-20T06:10:11.561Z,100.00
2022-12-20T06:12:37.924Z,100.00
2022-12-20T06:15:04.477Z,100.00
2022-12-20T06:17:30.854Z,100.00
2022-12-20T06:20:14.442Z,100.00
2022-12-20T06:22:40.808Z,100.00
2022-12-20T06:25:09.244Z,100.00
2022-12-20T06:27:36.564Z,100.00
2022-12-20T06:30:04.567Z,100.00
2022-12-20T06:32:31.180Z,100.00
2022-12-20T06:34:57.569Z,100.00
2022-12-20T06:37:24.057Z,100.00
2022-12-20T06:39:50.487Z,100.00
2022-12-20T06:42:16.910Z,100.00
2022-12-20T06:44:43.420Z,100.00
2022-12-20T06:47:51.112Z,100.00
2022-12-20T06:50:17.561Z,100.00
2022-12-20T06:52:50.106Z,100.00
2022-12-20T06:55:16.467Z,100.00
2022-12-20T06:57:43.575Z,100.00
2022-12-20T07:00:10.428Z,100.00
2022-12-20T07:02:36.880Z,100.00
2022-12-20T07:05:22.716Z,100.00
2022-12-20T07:07:49.214Z,100.00
2022-12-20T07:10:15.631Z,100.00
2022-12-20T07:12:47.455Z,100.00
2022-12-20T07:15:14.833Z,100.00
2022-12-20T07:17:41.165Z,100.00
2022-12-20T07:20:13.723Z,100.00
2022-12-20T07:22:41.305Z,100.00
2022-12-20T07:25:07.823Z,100.00
2022-12-20T07:27:41.296Z,100.00
2022-12-20T07:30:07.955Z,100.00
2022-12-20T07:32:34.305Z,100.00
2022-12-20T07:35:01.480Z,100.00
2022-12-20T07:37:31.905Z,100.00
2022-12-20T07:39:58.480Z,100.00
2022-12-20T07:42:46.255Z,100.00
2022-12-20T07:45:15.557Z,100.00
2022-12-20T07:47:41.981Z,100.00
2022-12-20T07:50:08.698Z,100.00
2022-12-20T07:52:35.811Z,100.00
2022-12-20T07:55:03.615Z,100.00
2022-12-20T07:57:32.409Z,100.00
2022-12-20T08:00:01.221Z,100.00
2022-12-20T08:02:31.500Z,100.00
2022-12-20T08:05:07.467Z,100.00
2022-12-20T08:07:34.460Z,100.00
2022-12-20T08:10:19.699Z,100.00
2022-12-20T08:12:47.604Z,100.00
2022-12-20T08:15:19.634Z,100.00
2022-12-20T08:17:45.976Z,100.00
2022-12-20T08:20:12.729Z,99.14
2022-12-20T08:22:39.133Z,100.00
2022-12-20T08:25:05.905Z,100.00
2022-12-20T08:27:32.284Z,100.00
2022-12-20T08:29:58.616Z,100.00
2022-12-20T08:32:25.028Z,100.00
2022-12-20T08:34:52.172Z,98.38
2022-12-20T08:37:18.926Z,99.25
2022-12-20T08:39:45.350Z,96.33
2022-12-20T08:42:12.151Z,97.50
2022-12-20T08:44:38.497Z,94.67
2022-12-20T08:47:04.819Z,99.39
2022-12-20T08:49:31.254Z,99.69
2022-12-20T08:51:57.802Z,97.85
2022-12-20T08:54:24.249Z,98.90
2022-12-20T08:57:01.526Z,100.00
2022-12-20T08:59:27.937Z,99.40
2022-12-20T09:01:54.809Z,100.00
2022-12-20T09:04:21.902Z,99.33
2022-12-20T09:07:05.749Z,100.00
2022-12-20T09:09:32.100Z,98.69
2022-12-20T09:12:14.072Z,100.00
2022-12-20T09:14:48.606Z,97.68
2022-12-20T09:17:14.947Z,98.49
2022-12-20T09:19:41.295Z,98.59
2022-12-20T09:22:08.723Z,99.11
2022-12-20T09:24:35.063Z,100.00
2022-12-20T09:27:01.465Z,99.21
2022-12-20T09:29:35.118Z,96.02
2022-12-20T09:32:22.171Z,93.69
2022-12-20T09:38:18.696Z,93.53
2022-12-20T09:40:46.981Z,90.48
2022-12-20T09:43:14.787Z,95.53
2022-12-20T09:45:41.388Z,93.60
2022-12-20T09:48:16.225Z,93.52
2022-12-20T09:50:47.173Z,92.56
2022-12-20T09:53:24.095Z,91.17
2022-12-20T09:55:56.575Z,92.04
2022-12-20T09:58:42.951Z,92.23
2022-12-20T10:01:22.954Z,92.59
2022-12-20T10:03:51.542Z,91.93
2022-12-20T10:06:36.385Z,91.82
2022-12-20T10:09:04.603Z,92.30
2022-12-20T10:12:07.324Z,93.76
2022-12-20T10:14:42.234Z,91.63
2022-12-20T10:17:12.787Z,92.45
2022-12-20T10:20:01.204Z,93.65
2022-12-20T10:22:30.279Z,93.35
2022-12-20T10:25:30.351Z,93.93
2022-12-20T10:28:06.801Z,94.45
2022-12-20T10:30:33.679Z,95.89
2022-12-20T10:33:00.147Z,95.09
2022-12-20T10:35:40.435Z,92.06
2022-12-20T10:38:18.269Z,93.20
2022-12-20T10:41:20.538Z,92.86
2022-12-20T10:43:47.999Z,91.88
2022-12-20T10:46:16.702Z,92.88
2022-12-20T10:48:48.659Z,91.47
2022-12-20T10:51:17.817Z,91.21
2022-12-20T10:54:03.238Z,94.94
2022-12-20T10:56:41.820Z,95.30
2022-12-20T10:59:21.275Z,93.14
2022-12-20T11:01:48.621Z,92.41
2022-12-20T11:04:28.997Z,91.21
2022-12-20T11:06:56.128Z,92.45
2022-12-20T11:09:22.530Z,91.53
2022-12-20T11:12:02.089Z,89.46
2022-12-20T11:14:42.339Z,88.75
2022-12-20T11:17:14.744Z,88.88
2022-12-20T11:19:57.561Z,86.34
2022-12-20T11:22:23.876Z,87.80
2022-12-20T11:25:00.104Z,83.99
2022-12-20T11:27:34.665Z,84.63
2022-12-20T11:30:29.881Z,85.97
2022-12-20T11:33:15.727Z,85.71
2022-12-20T11:35:50.984Z,87.51
2022-12-20T11:38:17.306Z,87.42
2022-12-20T11:41:07.698Z,85.83
2022-12-20T11:44:28.033Z,85.47
2022-12-20T11:46:50.491Z,89.38
2022-12-20T11:49:40.783Z,91.48
2022-12-20T11:52:17.178Z,88.72
2022-12-20T11:54:48.391Z,89.02
2022-12-20T11:57:24.407Z,89.33
2022-12-20T12:00:13.112Z,89.59
2022-12-20T12:02:39.552Z,88.53
2022-12-20T12:05:36.726Z,86.59
2022-12-20T12:08:05.744Z,89.39
2022-12-20T12:10:37.446Z,87.54
2022-12-20T12:13:11.300Z,85.76
2022-12-20T12:15:48.300Z,83.66
2022-12-20T12:18:17.256Z,87.79
2022-12-20T12:21:08.298Z,88.97
2022-12-20T12:23:39.978Z,88.84
2022-12-20T12:26:10.853Z,89.88
2022-12-20T12:28:41.473Z,90.28
2022-12-20T12:31:11.297Z,91.24
2022-12-20T12:33:47.708Z,90.33
2022-12-20T12:36:26.806Z,92.11
2022-12-20T12:39:12.171Z,91.43
2022-12-20T12:42:03.642Z,90.96
2022-12-20T12:44:48.803Z,91.07
2022-12-20T12:47:19.818Z,89.87
2022-12-20T12:49:49.457Z,89.35
2022-12-20T12:52:35.491Z,90.41
2022-12-20T12:55:02.169Z,91.53
2022-12-20T12:57:28.505Z,90.24
2022-12-20T12:59:54.839Z,88.79
2022-12-20T13:02:26.181Z,87.88
2022-12-20T13:04:58.931Z,88.18
2022-12-20T13:07:25.346Z,87.68
2022-12-20T13:09:51.755Z,87.79
2022-12-20T13:12:36.565Z,89.38
2022-12-20T13:15:23.192Z,88.07
2022-12-20T13:17:51.314Z,87.34
2022-12-20T13:23:46.136Z,91.06
2022-12-20T13:26:54.774Z,88.19
2022-12-20T13:29:50.076Z,87.11
2022-12-20T13:32:35.351Z,86.27
2022-12-20T13:35:28.208Z,86.25
2022-12-20T13:38:04.007Z,86.55
2022-12-20T13:40:31.327Z,86.38
2022-12-20T13:42:59.427Z,86.16
2022-12-20T13:45:26.484Z,87.11
2022-12-20T13:48:10.814Z,87.31
2022-12-20T13:54:34.981Z,88.10
2022-12-20T13:57:01.432Z,91.71
2022-12-20T13:59:47.385Z,92.31
2022-12-20T14:02:51.811Z,90.71
2022-12-20T14:05:26.318Z,93.03
2022-12-20T14:08:27.003Z,91.46
2022-12-20T14:10:53.868Z,91.04
2022-12-20T14:13:27.392Z,93.53
2022-12-20T14:16:22.311Z,94.72
2022-12-20T14:25:50.894Z,100.00
2022-12-20T14:28:35.870Z,100.00
2022-12-20T14:31:03.541Z,100.00
2022-12-20T14:40:26.664Z,97.63
2022-12-20T14:46:22.596Z,95.63
2022-12-20T14:48:49.118Z,98.39
2022-12-20T14:57:35.104Z,94.41
2022-12-20T15:00:13.696Z,95.30
2022-12-20T15:06:27.509Z,96.31
2022-12-20T15:08:53.864Z,94.15
2022-12-20T15:11:22.619Z,93.81
2022-12-20T15:17:18.352Z,94.18
2022-12-20T15:26:40.451Z,98.12
2022-12-20T15:29:07.028Z,99.39
2022-12-20T15:38:47.481Z,100.00
2022-12-20T15:41:40.551Z,100.00
2022-12-20T15:44:19.038Z,100.00
2022-12-20T15:50:07.535Z,100.00
2022-12-20T15:52:33.908Z,100.00
2022-12-20T15:55:00.277Z,100.00
2022-12-20T15:57:28.841Z,100.00
2022-12-20T16:00:01.535Z,100.00
2022-12-20T16:02:29.913Z,100.00
2022-12-20T16:08:24.794Z,100.00
2022-12-20T16:11:27.678Z,100.00
2022-12-20T16:17:22.870Z,100.00
2022-12-20T16:19:49.363Z,100.00
2022-12-20T16:25:37.339Z,100.00
2022-12-20T16:31:44.433Z,100.00
2022-12-20T16:34:17.889Z,100.00
2022-12-20T16:40:06.483Z,100.00
2022-12-20T16:42:40.908Z,100.00
2022-12-20T16:45:13.528Z,100.00
2022-12-20T16:47:39.941Z,100.00
2022-12-20T16:50:08.054Z,100.00
2022-12-20T16:52:37.261Z,100.00
2022-12-20T16:55:04.380Z,100.00
2022-12-20T16:57:30.706Z,100.00
2022-12-20T16:59:57.033Z,100.00
2022-12-20T17:02:27.196Z,100.00
2022-12-20T17:04:53.687Z,100.00
2022-12-20T17:10:41.616Z,100.00
2022-12-20T17:13:10.209Z,100.00
2022-12-20T17:19:05.201Z,100.00
2022-12-20T17:28:15.732Z,100.00
2022-12-20T17:30:42.152Z,100.00
2022-12-20T17:33:10.530Z,100.00
2022-12-20T17:42:32.651Z,100.00
2022-12-20T17:44:59.110Z,100.00
2022-12-20T17:47:25.517Z,100.00
2022-12-20T17:53:19.753Z,100.00
2022-12-20T17:55:46.079Z,100.00
2022-12-20T18:01:35.018Z,100.00
2022-12-20T18:04:05.621Z,100.00
2022-12-20T18:06:33.248Z,100.00
2022-12-20T18:12:21.533Z,100.00
2022-12-20T18:14:48.321Z,100.00
2022-12-20T18:17:14.733Z,100.00
2022-12-20T18:19:41.332Z,100.00
2022-12-20T18:22:07.737Z,100.00
2022-12-20T18:27:56.275Z,100.00
2022-12-20T18:33:57.954Z,100.00
2022-12-20T18:36:29.305Z,100.00
2022-12-20T18:39:30.006Z,100.00
2022-12-20T18:48:54.113Z,100.00
2022-12-20T18:51:38.300Z,100.00
2022-12-20T18:54:05.973Z,100.00
2022-12-20T18:56:33.560Z,100.00
2022-12-20T18:59:09.942Z,100.00
2022-12-20T19:02:04.929Z,100.00
2022-12-20T19:07:53.237Z,100.00
2022-12-20T19:10:19.767Z,100.00
2022-12-20T19:16:16.138Z,100.00
2022-12-20T19:22:04.274Z,100.00
2022-12-20T19:27:52.313Z,100.00
2022-12-20T19:33:40.524Z,100.00
2022-12-20T19:39:34.844Z,100.00
2022-12-20T19:48:58.949Z,100.00
2022-12-20T19:51:26.088Z,100.00
2022-12-20T19:57:20.724Z,100.00
2022-12-20T19:59:52.165Z,100.00
2022-12-20T20:09:59.935Z,100.00
2022-12-20T20:12:26.279Z,100.00
2022-12-20T20:18:21.074Z,100.00
2022-12-20T20:24:09.785Z,100.00
2022-12-20T20:26:36.291Z,100.00
2022-12-20T20:32:31.260Z,100.00
2022-12-20T20:34:57.626Z,100.00
2022-12-20T20:40:52.240Z,100.00
2022-12-20T20:43:19.856Z,100.00
2022-12-20T20:49:07.614Z,100.00
2022-12-20T20:51:34.360Z,100.00
2022-12-20T20:57:30.434Z,100.00
2022-12-20T21:03:24.886Z,100.00
2022-12-20T21:08:37.566Z,100.00
2022-12-20T21:11:05.199Z,100.00
2022-12-20T21:16:59.594Z,100.00
2022-12-20T21:22:53.748Z,100.00
2022-12-20T21:28:47.773Z,100.00
2022-12-20T21:31:18.626Z,100.00
2022-12-20T21:37:12.951Z,100.00
2022-12-20T21:39:39.408Z,100.00
2022-12-20T21:42:05.753Z,100.00
2022-12-20T21:44:32.158Z,100.00
2022-12-20T21:46:58.516Z,100.00
2022-12-20T21:52:46.380Z,100.00
2022-12-20T21:55:15.005Z,100.00
2022-12-20T21:57:41.419Z,100.00
2022-12-20T22:03:36.749Z,100.00
2022-12-20T22:06:03.700Z,100.00
2022-12-20T22:08:31.011Z,100.00
2022-12-20T22:10:58.081Z,100.00
2022-12-20T22:16:54.753Z,100.00
2022-12-20T22:19:21.251Z,100.00
2022-12-20T22:21:52.259Z,100.00
2022-12-20T22:24:22.069Z,100.00
2022-12-20T22:26:49.256Z,100.00
2022-12-20T22:32:43.301Z,100.00
2022-12-20T22:38:31.030Z,100.00
2022-12-20T22:41:09.552Z,100.00
2022-12-20T22:43:37.485Z,100.00
2022-12-20T22:46:04.355Z,100.00
2022-12-20T22:48:30.989Z,100.00
2022-12-20T22:51:03.422Z,100.00
2022-12-20T22:53:29.765Z,100.00
2022-12-20T22:55:56.116Z,100.00
2022-12-20T22:58:35.340Z,100.00
2022-12-20T23:01:04.727Z,100.00
2022-12-20T23:03:31.818Z,100.00
2022-12-20T23:05:59.797Z,100.00
2022-12-20T23:08:29.860Z,100.00
2022-12-20T23:11:15.428Z,98.91
2022-12-20T23:14:20.466Z,100.00
2022-12-20T23:16:46.894Z,100.00
2022-12-20T23:19:13.341Z,100.00
2022-12-20T23:25:12.193Z,100.00
2022-12-20T23:27:39.603Z,100.00
2022-12-20T23:33:28.072Z,100.00
2022-12-20T23:36:15.993Z,100.00
2022-12-20T23:38:42.347Z,100.00
2022-12-20T23:44:30.572Z,100.00
2022-12-20T23:46:56.982Z,100.00
2022-12-20T23:49:23.343Z,100.00
2022-12-20T23:51:49.833Z,100.00
2022-12-20T23:54:19.625Z,100.00
2022-12-20T23:56:46.027Z,100.00
2022-12-20T23:59:12.354Z,100.00
